createdAt,value
2022-10-07T00:00:52.580Z,22.36
2022-10-07T00:03:21.758Z,22.19
2022-10-07T00:06:00.714Z,21.99
2022-10-07T00:08:27.535Z,22.21
2022-10-07T00:10:54.326Z,22.26
2022-10-07T00:13:21.007Z,22.00
2022-10-07T00:15:48.173Z,22.27
2022-10-07T00:18:14.841Z,22.45
2022-10-07T00:20:41.529Z,21.99
2022-10-07T00:23:08.281Z,21.94
2022-10-07T00:25:38.229Z,22.25
2022-10-07T00:28:05.581Z,22.32
2022-10-07T00:30:32.747Z,21.79
2022-10-07T00:32:59.505Z,21.99
2022-10-07T00:35:26.338Z,21.99
2022-10-07T00:37:53.306Z,22.20
2022-10-07T00:40:19.841Z,21.92
2022-10-07T00:42:46.838Z,22.17
2022-10-07T00:45:17.649Z,22.04
2022-10-07T00:47:47.931Z,22.26
2022-10-07T00:50:20.510Z,22.23
2022-10-07T00:52:51.874Z,22.15
2022-10-07T00:55:22.773Z,21.86
2022-10-07T00:57:51.992Z,22.14
2022-10-07T01:00:18.929Z,21.92
2022-10-07T01:02:47.662Z,22.34
2022-10-07T01:05:14.667Z,22.09
2022-10-07T01:07:45.123Z,21.85
2022-10-07T01:10:15.434Z,21.90
2022-10-07T01:13:03.418Z,21.72
2022-10-07T01:15:51.697Z,21.44
2022-10-07T01:18:25.873Z,21.68
2022-10-07T01:21:06.192Z,21.34
2022-10-07T01:24:05.326Z,20.79
2022-10-07T01:26:42.795Z,20.75
2022-10-07T01:29:26.853Z,20.63
2022-10-07T01:32:01.441Z,21.05
2022-10-07T01:34:28.341Z,21.08
2022-10-07T01:36:59.136Z,21.30
2022-10-07T01:39:33.490Z,21.01
2022-10-07T01:42:00.093Z,20.83
2022-10-07T01:44:30.741Z,21.08
2022-10-07T01:46:58.773Z,21.05
2022-10-07T01:49:25.650Z,21.14
2022-10-07T01:52:16.228Z,21.20
2022-10-07T01:55:28.456Z,21.44
2022-10-07T01:58:02.837Z,21.53
2022-10-07T02:00:31.190Z,21.45
2022-10-07T02:03:17.762Z,21.08
2022-10-07T02:05:52.073Z,21.09
2022-10-07T02:08:42.133Z,20.86
2022-10-07T02:11:21.546Z,20.88
2022-10-07T02:14:08.178Z,20.50
2022-10-07T02:16:59.316Z,20.94
2022-10-07T02:19:32.457Z,20.25
2022-10-07T02:22:02.686Z,19.94
2022-10-07T02:24:33.854Z,20.05
2022-10-07T02:27:06.667Z,19.40
2022-10-07T02:29:36.922Z,19.73
2022-10-07T02:32:08.178Z,20.08
2022-10-07T02:34:36.152Z,20.38
2022-10-07T02:37:11.050Z,20.34
2022-10-07T02:39:37.721Z,20.27
2022-10-07T02:42:16.462Z,20.04
2022-10-07T02:44:46.943Z,19.97
2022-10-07T02:47:29.258Z,19.86
2022-10-07T02:50:00.114Z,19.69
2022-10-07T02:52:31.185Z,20.18
2022-10-07T02:55:01.926Z,19.77
2022-10-07T02:57:33.262Z,19.81
2022-10-07T03:00:01.534Z,20.05
2022-10-07T03:02:44.618Z,20.13
2022-10-07T03:05:13.143Z,20.11
2022-10-07T03:07:41.990Z,19.33
2022-10-07T03:10:09.156Z,19.34
2022-10-07T03:12:36.674Z,19.50
2022-10-07T03:15:03.589Z,19.37
2022-10-07T03:17:30.118Z,19.71
2022-10-07T03:19:57.966Z,19.60
2022-10-07T03:22:25.639Z,19.73
2022-10-07T03:24:52.301Z,19.73
2022-10-07T03:27:19.351Z,19.48
2022-10-07T03:29:48.754Z,19.14
2022-10-07T03:32:15.939Z,19.41
2022-10-07T03:34:42.491Z,19.73
2022-10-07T03:37:09.037Z,19.86
2022-10-07T03:39:36.342Z,19.72
2022-10-07T03:42:03.170Z,19.70
2022-10-07T03:44:31.615Z,20.24
2022-10-07T03:46:59.149Z,20.49
2022-10-07T03:49:27.471Z,20.12
2022-10-07T03:51:55.099Z,20.10
2022-10-07T03:54:22.001Z,20.42
2022-10-07T03:56:48.583Z,20.37
2022-10-07T03:59:15.173Z,20.42
2022-10-07T04:01:42.369Z,20.39
2022-10-07T04:04:09.136Z,20.25
2022-10-07T04:06:37.811Z,20.24
2022-10-07T04:09:09.560Z,19.86
2022-10-07T04:11:40.354Z,20.12
2022-10-07T04:14:07.663Z,20.03
2022-10-07T04:16:37.969Z,19.90
2022-10-07T04:19:07.169Z,19.86
2022-10-07T04:21:34.029Z,19.83
2022-10-07T04:24:00.608Z,19.81
2022-10-07T04:26:27.259Z,19.75
2022-10-07T04:28:53.875Z,20.02
2022-10-07T04:31:23.768Z,20.28
2022-10-07T04:33:57.009Z,20.18
2022-10-07T04:36:28.518Z,19.57
2022-10-07T04:39:01.940Z,19.56
2022-10-07T04:41:33.477Z,19.35
2022-10-07T04:44:00.942Z,19.67
2022-10-07T04:46:32.643Z,19.75
2022-10-07T04:49:05.150Z,20.13
2022-10-07T04:51:31.751Z,20.18
2022-10-07T04:54:00.396Z,20.00
2022-10-07T04:56:35.731Z,19.68
2022-10-07T04:59:05.986Z,19.97
2022-10-07T05:01:33.254Z,19.81
2022-10-07T05:04:00.226Z,18.86
2022-10-07T05:06:28.147Z,18.60
2022-10-07T05:08:54.788Z,18.60
2022-10-07T05:11:22.911Z,18.73
2022-10-07T05:13:57.041Z,18.33
2022-10-07T05:16:24.550Z,18.51
2022-10-07T05:18:51.529Z,18.75
2022-10-07T05:21:18.681Z,19.14
2022-10-07T05:23:47.744Z,19.59
2022-10-07T05:26:19.998Z,19.96
2022-10-07T05:28:51.363Z,19.95
2022-10-07T05:31:26.110Z,19.83
2022-10-07T05:33:56.345Z,19.46
2022-10-07T05:36:25.808Z,19.93
2022-10-07T05:38:57.903Z,19.79
2022-10-07T05:41:30.290Z,19.00
2022-10-07T05:44:00.083Z,18.85
2022-10-07T05:46:27.417Z,19.40
2022-10-07T05:48:57.200Z,19.54
2022-10-07T05:51:27.916Z,19.26
2022-10-07T05:53:57.552Z,19.55
2022-10-07T05:56:30.255Z,19.58
2022-10-07T05:58:57.273Z,19.41
2022-10-07T06:01:28.203Z,19.88
2022-10-07T06:03:57.473Z,19.44
2022-10-07T06:06:26.902Z,19.09
2022-10-07T06:09:16.617Z,19.23
2022-10-07T06:12:02.409Z,19.82
2022-10-07T06:14:30.009Z,20.43
2022-10-07T06:16:57.709Z,21.36
2022-10-07T06:19:24.526Z,22.38
2022-10-07T06:21:54.218Z,23.66
2022-10-07T06:24:20.853Z,25.03
2022-10-07T06:26:48.445Z,26.34
2022-10-07T06:29:16.149Z,27.23
2022-10-07T06:31:42.966Z,28.50
2022-10-07T06:34:10.115Z,29.63
2022-10-07T06:36:36.911Z,30.30
2022-10-07T06:39:04.403Z,30.02
2022-10-07T06:41:36.523Z,30.35
2022-10-07T06:44:19.465Z,30.52
2022-10-07T06:46:46.062Z,30.95
2022-10-07T06:49:12.855Z,31.09
2022-10-07T06:51:39.675Z,31.79
2022-10-07T06:54:06.309Z,31.85
2022-10-07T06:56:33.748Z,32.19
2022-10-07T06:59:01.740Z,32.77
2022-10-07T07:01:36.861Z,33.03
2022-10-07T07:04:03.858Z,33.28
2022-10-07T07:06:30.943Z,33.28
2022-10-07T07:09:04.497Z,33.93
2022-10-07T07:11:41.960Z,34.14
2022-10-07T07:14:14.573Z,33.94
2022-10-07T07:16:46.541Z,34.22
2022-10-07T07:19:14.578Z,34.44
2022-10-07T07:21:42.401Z,34.69
2022-10-07T07:24:12.434Z,34.25
2022-10-07T07:26:40.353Z,34.57
2022-10-07T07:29:10.931Z,34.40
2022-10-07T07:31:43.069Z,35.55
2022-10-07T07:34:12.562Z,35.68
2022-10-07T07:36:45.486Z,36.52
2022-10-07T07:39:14.957Z,36.97
2022-10-07T07:41:46.606Z,37.61
2022-10-07T07:44:16.214Z,38.30
2022-10-07T07:46:48.095Z,38.46
2022-10-07T07:49:16.908Z,37.53
2022-10-07T07:51:45.159Z,38.20
2022-10-07T07:54:17.766Z,37.77
2022-10-07T07:56:47.142Z,39.02
2022-10-07T07:59:14.224Z,39.07
2022-10-07T08:01:44.067Z,39.04
2022-10-07T08:04:13.169Z,39.39
2022-10-07T08:06:40.377Z,40.24
2022-10-07T08:09:06.979Z,40.51
2022-10-07T08:11:34.343Z,40.11
2022-10-07T08:14:03.256Z,39.19
2022-10-07T08:16:32.829Z,39.55
2022-10-07T08:19:00.757Z,39.73
2022-10-07T08:21:32.757Z,40.64
2022-10-07T08:24:02.792Z,41.06
2022-10-07T08:26:34.407Z,40.59
2022-10-07T08:29:04.249Z,39.87
2022-10-07T08:31:32.111Z,40.53
2022-10-07T08:34:00.805Z,41.19
2022-10-07T08:36:29.860Z,40.84
2022-10-07T08:38:56.623Z,41.03
2022-10-07T08:41:50.960Z,40.16
2022-10-07T08:44:19.902Z,39.65
2022-10-07T08:47:08.645Z,38.60
2022-10-07T08:49:47.099Z,38.18
2022-10-07T08:52:32.656Z,37.50
2022-10-07T08:55:02.364Z,37.99
2022-10-07T08:58:06.022Z,37.50
2022-10-07T09:00:59.417Z,37.39
2022-10-07T09:03:54.826Z,37.18
2022-10-07T09:06:38.231Z,36.90
2022-10-07T09:09:16.908Z,37.36
2022-10-07T09:11:46.953Z,38.79
2022-10-07T09:14:30.586Z,39.42
2022-10-07T09:17:04.725Z,39.15
2022-10-07T09:19:41.720Z,37.91
2022-10-07T09:22:21.303Z,39.66
2022-10-07T09:24:51.813Z,40.44
2022-10-07T09:27:20.609Z,40.30
2022-10-07T09:29:47.354Z,40.74
2022-10-07T09:32:17.331Z,41.14
2022-10-07T09:34:44.265Z,40.98
2022-10-07T09:37:21.752Z,40.59
2022-10-07T09:39:53.985Z,39.64
2022-10-07T09:42:35.072Z,38.56
2022-10-07T09:45:19.205Z,38.03
2022-10-07T09:47:52.435Z,37.85
2022-10-07T09:50:41.677Z,37.83
2022-10-07T09:53:23.115Z,37.45
2022-10-07T09:55:51.984Z,35.45
2022-10-07T09:58:27.055Z,34.72
2022-10-07T10:00:56.857Z,33.88
2022-10-07T10:03:37.474Z,33.21
2022-10-07T10:06:09.056Z,32.61
2022-10-07T10:08:41.658Z,32.96
2022-10-07T10:11:20.072Z,32.79
2022-10-07T10:13:48.382Z,31.92
2022-10-07T10:16:36.019Z,32.34
2022-10-07T10:19:05.115Z,31.98
2022-10-07T10:21:40.013Z,31.70
2022-10-07T10:24:12.090Z,31.21
2022-10-07T10:27:03.671Z,31.98
2022-10-07T10:29:51.599Z,30.95
2022-10-07T10:32:46.079Z,30.87
2022-10-07T10:35:18.897Z,30.95
2022-10-07T10:38:11.125Z,30.40
2022-10-07T10:41:19.978Z,30.73
2022-10-07T10:44:06.891Z,29.92
2022-10-07T10:46:42.543Z,30.49
2022-10-07T10:49:43.137Z,30.42
2022-10-07T10:52:15.414Z,29.86
2022-10-07T10:55:19.910Z,30.50
2022-10-07T10:58:03.305Z,30.16
2022-10-07T11:00:44.577Z,29.66
2022-10-07T11:03:28.686Z,29.18
2022-10-07T11:05:56.086Z,29.80
2022-10-07T11:08:27.611Z,30.60
2022-10-07T11:11:07.261Z,30.97
2022-10-07T11:14:03.199Z,31.13
2022-10-07T11:16:38.429Z,30.47
2022-10-07T11:19:50.903Z,29.63
2022-10-07T11:22:32.300Z,29.63
2022-10-07T11:25:08.667Z,29.56
2022-10-07T11:27:35.297Z,30.22
2022-10-07T11:30:23.215Z,29.68
2022-10-07T11:33:15.188Z,30.63
2022-10-07T11:35:49.010Z,29.99
2022-10-07T11:38:20.340Z,30.29
2022-10-07T11:40:53.698Z,30.12
2022-10-07T11:43:34.396Z,29.98
2022-10-07T11:46:11.721Z,30.20
2022-10-07T11:48:46.621Z,30.03
2022-10-07T11:51:26.357Z,30.61
2022-10-07T11:53:56.833Z,30.34
2022-10-07T11:56:26.618Z,29.67
2022-10-07T11:59:48.167Z,30.10
2022-10-07T12:02:30.100Z,29.18
2022-10-07T12:05:01.344Z,29.12
2022-10-07T12:07:37.039Z,29.88
2022-10-07T12:10:03.700Z,30.11
2022-10-07T12:12:42.765Z,30.43
2022-10-07T12:15:42.049Z,30.42
2022-10-07T12:18:12.360Z,30.66
2022-10-07T12:20:50.668Z,31.26
2022-10-07T12:23:17.264Z,30.44
2022-10-07T12:25:56.041Z,30.41
2022-10-07T12:28:45.717Z,29.46
2022-10-07T12:31:13.372Z,29.96
2022-10-07T12:33:55.803Z,30.88
2022-10-07T12:36:22.498Z,31.54
2022-10-07T12:39:09.803Z,31.38
2022-10-07T12:41:39.748Z,31.83
2022-10-07T12:44:22.467Z,31.75
2022-10-07T12:47:26.450Z,31.57
2022-10-07T12:49:58.943Z,31.60
2022-10-07T12:52:42.160Z,31.85
2022-10-07T12:55:16.157Z,32.18
2022-10-07T12:57:49.586Z,32.15
2022-10-07T13:00:24.745Z,31.71
2022-10-07T13:03:36.090Z,30.88
2022-10-07T13:06:32.397Z,31.01
2022-10-07T13:09:17.342Z,31.07
2022-10-07T13:12:00.707Z,30.82
2022-10-07T13:14:40.993Z,31.39
2022-10-07T13:17:35.203Z,31.25
2022-10-07T13:20:14.310Z,30.57
2022-10-07T13:22:48.784Z,30.86
2022-10-07T13:25:19.597Z,31.05
2022-10-07T13:27:53.791Z,30.61
2022-10-07T13:30:39.943Z,30.54
2022-10-07T13:33:22.779Z,30.88
2022-10-07T13:35:50.448Z,31.35
2022-10-07T13:38:28.352Z,31.36
2022-10-07T13:41:14.391Z,30.36
2022-10-07T13:43:43.798Z,30.13
2022-10-07T13:46:11.694Z,29.79
2022-10-07T13:48:45.401Z,30.55
2022-10-07T13:51:31.660Z,30.46
2022-10-07T13:54:04.320Z,29.57
2022-10-07T13:56:42.436Z,29.78
2022-10-07T13:59:18.027Z,29.95
2022-10-07T14:01:47.435Z,29.70
2022-10-07T14:04:36.090Z,29.66
2022-10-07T14:07:11.774Z,30.44
2022-10-07T14:09:47.162Z,30.94
2022-10-07T14:12:36.510Z,30.80
2022-10-07T14:15:15.935Z,30.81
2022-10-07T14:17:48.036Z,30.99
2022-10-07T14:20:36.924Z,31.44
2022-10-07T14:23:16.921Z,30.93
2022-10-07T14:25:49.519Z,30.27
2022-10-07T14:28:25.026Z,30.52
2022-10-07T14:31:25.761Z,30.30
2022-10-07T14:34:30.993Z,30.40
2022-10-07T14:37:19.040Z,30.55
2022-10-07T14:39:50.844Z,29.78
2022-10-07T14:42:24.686Z,30.20
2022-10-07T14:44:53.174Z,30.55
2022-10-07T14:47:24.191Z,30.18
2022-10-07T14:49:52.878Z,30.00
2022-10-07T14:52:28.818Z,29.57
2022-10-07T14:55:00.650Z,29.64
2022-10-07T14:57:27.590Z,30.19
2022-10-07T14:59:54.661Z,30.66
2022-10-07T15:02:22.244Z,31.25
2022-10-07T15:04:49.288Z,31.02
2022-10-07T15:07:16.875Z,31.18
2022-10-07T15:09:45.859Z,30.97
2022-10-07T15:12:14.335Z,31.04
2022-10-07T15:14:40.978Z,30.78
2022-10-07T15:17:11.290Z,30.81
2022-10-07T15:19:37.976Z,30.56
2022-10-07T15:22:05.564Z,29.97
2022-10-07T15:24:33.073Z,29.85
2022-10-07T15:27:00.049Z,29.76
2022-10-07T15:29:26.643Z,29.76
2022-10-07T15:31:53.678Z,30.24
2022-10-07T15:34:20.407Z,30.24
2022-10-07T15:36:48.912Z,29.96
2022-10-07T15:39:15.758Z,28.91
2022-10-07T15:41:43.878Z,29.62
2022-10-07T15:44:19.315Z,29.05
2022-10-07T15:46:47.485Z,29.87
2022-10-07T15:49:16.814Z,30.27
2022-10-07T15:51:43.714Z,30.08
2022-10-07T15:54:10.512Z,30.21
2022-10-07T15:56:37.150Z,30.06
2022-10-07T15:59:04.006Z,30.54
2022-10-07T16:01:33.472Z,30.76
2022-10-07T16:04:01.963Z,30.46
2022-10-07T16:06:32.384Z,30.53
2022-10-07T16:09:00.027Z,30.34
2022-10-07T16:11:28.573Z,30.14
2022-10-07T16:13:55.138Z,29.97
2022-10-07T16:16:25.945Z,29.70
2022-10-07T16:18:56.864Z,29.59
2022-10-07T16:21:29.528Z,29.86
2022-10-07T16:23:59.459Z,29.79
2022-10-07T16:26:29.874Z,29.66
2022-10-07T16:29:16.986Z,29.97
2022-10-07T16:31:45.272Z,30.34
2022-10-07T16:34:14.611Z,30.03
2022-10-07T16:36:45.562Z,30.22
2022-10-07T16:39:13.341Z,29.88
2022-10-07T16:41:44.012Z,29.97
2022-10-07T16:44:10.983Z,30.05
2022-10-07T16:46:38.026Z,29.87
2022-10-07T16:49:06.420Z,29.77
2022-10-07T16:51:36.052Z,29.95
2022-10-07T16:54:12.565Z,29.77
2022-10-07T16:56:48.131Z,29.57
2022-10-07T16:59:24.079Z,29.18
2022-10-07T17:01:52.853Z,28.97
2022-10-07T17:04:19.626Z,29.19
2022-10-07T17:06:46.815Z,29.23
2022-10-07T17:09:13.881Z,29.27
2022-10-07T17:11:41.436Z,29.33
2022-10-07T17:14:16.199Z,29.31
2022-10-07T17:16:44.743Z,29.23
2022-10-07T17:19:15.405Z,29.33
2022-10-07T17:21:42.277Z,29.11
2022-10-07T17:24:09.587Z,29.22
2022-10-07T17:26:37.809Z,28.94
2022-10-07T17:29:07.617Z,28.76
2022-10-07T17:31:36.804Z,28.74
2022-10-07T17:34:03.434Z,28.89
2022-10-07T17:36:32.363Z,28.86
2022-10-07T17:38:59.714Z,28.86
2022-10-07T17:41:32.536Z,28.30
2022-10-07T17:44:01.049Z,28.37
2022-10-07T17:46:30.170Z,28.57
2022-10-07T17:48:59.083Z,28.46
2022-10-07T17:51:28.791Z,28.66
2022-10-07T17:53:57.128Z,28.23
2022-10-07T17:56:23.939Z,28.36
2022-10-07T17:58:50.777Z,28.27
2022-10-07T18:01:24.015Z,28.05
2022-10-07T18:03:54.961Z,27.80
2022-10-07T18:06:21.551Z,27.68
2022-10-07T18:08:48.129Z,27.73
2022-10-07T18:11:17.639Z,27.94
2022-10-07T18:14:03.185Z,27.41
2022-10-07T18:16:35.110Z,27.54
2022-10-07T18:19:02.474Z,27.53
2022-10-07T18:21:30.966Z,27.56
2022-10-07T18:23:57.993Z,27.54
2022-10-07T18:26:24.645Z,27.35
2022-10-07T18:28:51.355Z,27.21
2022-10-07T18:31:19.574Z,26.87
2022-10-07T18:33:46.402Z,27.11
2022-10-07T18:36:19.022Z,26.74
2022-10-07T18:38:46.109Z,26.41
2022-10-07T18:41:16.170Z,26.59
2022-10-07T18:43:44.310Z,26.50
2022-10-07T18:46:14.267Z,26.43
2022-10-07T18:48:42.471Z,26.57
2022-10-07T18:51:10.531Z,26.55
2022-10-07T18:53:39.496Z,26.36
2022-10-07T18:56:08.700Z,25.26
2022-10-07T18:58:40.782Z,25.67
2022-10-07T19:01:11.317Z,25.74
2022-10-07T19:03:38.474Z,25.14
2022-10-07T19:06:16.226Z,25.13
2022-10-07T19:08:42.991Z,25.35
2022-10-07T19:11:12.466Z,25.87
2022-10-07T19:13:48.464Z,25.80
2022-10-07T19:16:21.257Z,26.01
2022-10-07T19:18:49.422Z,26.16
2022-10-07T19:21:18.175Z,25.70
2022-10-07T19:23:44.857Z,25.51
2022-10-07T19:26:12.785Z,25.32
2022-10-07T19:28:40.177Z,25.41
2022-10-07T19:31:21.133Z,25.39
2022-10-07T19:33:49.941Z,25.74
2022-10-07T19:36:20.041Z,25.84
2022-10-07T19:38:52.199Z,25.97
2022-10-07T19:41:21.229Z,25.93
2022-10-07T19:43:48.986Z,25.74
2022-10-07T19:46:16.792Z,25.49
2022-10-07T19:48:43.429Z,25.50
2022-10-07T19:51:13.090Z,25.47
2022-10-07T19:53:46.011Z,25.11
2022-10-07T19:56:20.233Z,25.40
2022-10-07T19:58:52.214Z,24.91
2022-10-07T20:01:24.680Z,25.45
2022-10-07T20:04:02.768Z,25.46
2022-10-07T20:06:30.500Z,25.53
2022-10-07T20:08:57.554Z,25.22
2022-10-07T20:11:24.550Z,25.47
2022-10-07T20:13:52.381Z,25.53
2022-10-07T20:16:21.806Z,25.32
2022-10-07T20:18:49.859Z,25.13
2022-10-07T20:21:22.080Z,25.60
2022-10-07T20:23:48.765Z,25.64
2022-10-07T20:26:18.953Z,25.62
2022-10-07T20:28:50.989Z,25.66
2022-10-07T20:31:21.287Z,25.81
2022-10-07T20:33:50.375Z,25.74
2022-10-07T20:36:20.204Z,25.75
2022-10-07T20:39:05.690Z,25.17
2022-10-07T20:41:50.989Z,25.29
2022-10-07T20:44:18.146Z,25.51
2022-10-07T20:46:44.845Z,25.29
2022-10-07T20:49:22.953Z,25.20
2022-10-07T20:51:53.482Z,25.34
2022-10-07T20:54:21.942Z,25.16
2022-10-07T20:56:50.569Z,24.74
2022-10-07T20:59:17.097Z,24.51
2022-10-07T21:01:44.419Z,24.93
2022-10-07T21:04:13.685Z,24.68
2022-10-07T21:06:40.534Z,24.86
2022-10-07T21:09:08.113Z,25.00
2022-10-07T21:11:35.190Z,24.81
2022-10-07T21:14:01.962Z,24.60
2022-10-07T21:16:30.350Z,25.00
2022-10-07T21:18:57.200Z,24.95
2022-10-07T21:21:25.017Z,25.02
2022-10-07T21:23:51.756Z,24.77
2022-10-07T21:26:19.088Z,24.49
2022-10-07T21:28:48.181Z,24.37
2022-10-07T21:31:17.679Z,23.94
2022-10-07T21:33:47.897Z,24.48
2022-10-07T21:36:20.255Z,23.84
2022-10-07T21:38:53.719Z,23.72
2022-10-07T21:41:23.786Z,24.17
2022-10-07T21:43:52.601Z,24.54
2022-10-07T21:46:20.737Z,24.47
2022-10-07T21:48:47.903Z,24.78
2022-10-07T21:51:15.039Z,25.03
2022-10-07T21:53:41.817Z,24.81
2022-10-07T21:56:11.796Z,24.83
2022-10-07T21:58:38.733Z,24.71
2022-10-07T22:01:08.096Z,24.84
2022-10-07T22:03:35.034Z,24.88
2022-10-07T22:06:07.081Z,24.80
2022-10-07T22:08:34.892Z,24.79
2022-10-07T22:11:17.841Z,25.20
2022-10-07T22:13:47.322Z,25.17
2022-10-07T22:16:17.000Z,25.00
2022-10-07T22:18:49.256Z,25.07
2022-10-07T22:21:21.802Z,25.03
2022-10-07T22:23:51.090Z,24.75
2022-10-07T22:26:20.114Z,24.95
2022-10-07T22:28:47.107Z,24.94
2022-10-07T22:31:14.819Z,24.72
2022-10-07T22:33:42.356Z,24.06
2022-10-07T22:36:11.304Z,23.87
2022-10-07T22:38:40.893Z,24.21
2022-10-07T22:41:10.654Z,24.35
2022-10-07T22:43:42.377Z,24.52
2022-10-07T22:46:11.011Z,24.44
2022-10-07T22:48:37.754Z,24.55
2022-10-07T22:51:08.347Z,24.55
2022-10-07T22:53:36.210Z,24.50
2022-10-07T22:56:10.576Z,24.50
2022-10-07T22:58:39.038Z,24.43
2022-10-07T23:01:07.849Z,24.47
2022-10-07T23:03:36.160Z,24.53
2022-10-07T23:06:03.793Z,24.19
2022-10-07T23:08:32.129Z,23.95
2022-10-07T23:10:59.593Z,23.67
2022-10-07T23:13:26.878Z,23.71
2022-10-07T23:16:00.287Z,23.76
2022-10-07T23:18:28.525Z,23.62
2022-10-07T23:21:03.258Z,23.25
2022-10-07T23:23:30.561Z,23.13
2022-10-07T23:25:57.338Z,23.30
2022-10-07T23:28:25.707Z,23.51
2022-10-07T23:30:53.063Z,23.48
2022-10-07T23:33:19.761Z,23.18
2022-10-07T23:35:46.807Z,23.10
2022-10-07T23:38:13.426Z,23.13
2022-10-07T23:40:40.715Z,22.82
2022-10-07T23:43:11.128Z,22.83
2022-10-07T23:45:37.654Z,23.01
2022-10-07T23:48:04.378Z,22.95
2022-10-07T23:50:32.010Z,22.68
2022-10-07T23:52:59.070Z,22.68
2022-10-07T23:55:25.714Z,22.81
2022-10-07T23:57:52.226Z,23.11
